Time;durP1;ratioP1;P1;durP2;ratioP2;P2;SDS_P1;SDS_P2;PMS_P1;PMS_P2;Temp;Humidity;BMP_temperature;BMP_pressure;BME280_temperature;BME280_humidity;BME280_pressure;Samples;Min_cycle;Max_cycle;Signal;HPM_P1;HPM_P2
2022/08/15 00:00:24;;;;;;;9.38;8.88;;;;;;;21.86;60.80;99959.34;5976619;23;20406;-81
2022/08/15 00:02:53;;;;;;;6.63;6.20;;;;;;;22.12;62.33;100009.84;6008289;23;20294;-80
2022/08/15 00:05:27;;;;;;;6.20;5.80;;;;;;;22.07;62.31;100014.88;5989593;23;20591;-79
2022/08/15 00:07:55;;;;;;;5.93;5.63;;;;;;;20.86;62.37;99837.69;5983903;23;20035;-78
2022/08/15 00:10:22;;;;;;;6.47;6.07;;;;;;;22.01;62.74;100018.22;5985668;23;20025;-80
2022/08/15 00:13:21;;;;;;;6.68;6.28;;;;;;;21.97;62.42;100027.59;6012708;23;20012;-78
2022/08/15 00:15:51;;;;;;;6.10;5.70;;;;;;;21.75;61.88;99983.72;5991848;23;20025;-76
2022/08/15 00:18:19;;;;;;;7.72;7.22;;;;;;;21.99;61.70;100041.63;5984142;23;20048;-81
2022/08/15 00:20:47;;;;;;;6.28;5.93;;;;;;;22.00;61.08;100040.63;5987265;23;20519;-77
2022/08/15 00:23:17;;;;;;;7.85;7.35;;;;;;;22.03;60.37;100018.88;6001249;23;20015;-80
2022/08/15 00:25:53;;;;;;;5.85;5.55;;;;;;;22.02;60.66;100020.72;5989241;23;20042;-79
2022/08/15 00:28:25;;;;;;;6.63;6.22;;;;;;;21.61;60.62;99950.53;6003130;23;20021;-78
2022/08/15 00:31:08;;;;;;;6.75;6.35;;;;;;;22.00;60.04;100044.13;6008651;23;20030;-75
2022/08/15 00:33:38;;;;;;;6.07;5.70;;;;;;;21.98;60.61;100016.75;6049148;23;20025;-77
2022/08/15 00:36:07;;;;;;;5.95;5.65;;;;;;;21.95;60.89;100018.91;5987117;23;20277;-75
2022/08/15 00:38:54;;;;;;;5.82;5.53;;;;;;;21.91;60.37;100016.59;6042661;23;20101;-80
2022/08/15 00:41:41;;;;;;;6.28;5.88;;;;;;;21.42;60.12;99949.88;6000251;23;20469;-77
2022/08/15 00:44:11;;;;;;;6.07;5.78;;;;;;;21.88;59.98;100024.13;6033269;23;20023;-76
2022/08/15 00:46:47;;;;;;;5.80;5.50;;;;;;;21.75;59.79;100003.28;6020257;23;20039;-80
2022/08/15 00:49:14;;;;;;;6.78;6.38;;;;;;;21.64;59.77;99988.44;6030618;23;20027;-80
2022/08/15 00:51:59;;;;;;;6.63;6.20;;;;;;;21.58;60.13;99989.09;6001295;23;20018;-78
2022/08/15 00:54:35;;;;;;;6.03;5.63;;;;;;;21.85;59.98;100027.97;6034169;23;20021;-79
2022/08/15 00:57:29;;;;;;;7.07;6.68;;;;;;;21.09;59.96;99917.91;6007500;23;20380;-79
2022/08/15 01:00:25;;;;;;;7.07;6.68;;;;;;;21.85;59.48;100025.28;6011047;23;20027;-78
2022/08/15 01:03:09;;;;;;;6.35;5.72;;;;;;;20.94;58.90;99895.53;6008519;23;20069;-79
2022/08/15 01:05:44;;;;;;;6.03;5.63;;;;;;;20.09;59.38;99773.19;6037619;23;20106;-80
2022/08/15 01:08:16;;;;;;;6.60;6.20;;;;;;;19.80;58.96;99710.56;5990853;23;20019;-77
2022/08/15 01:10:47;;;;;;;5.55;5.25;;;;;;;21.38;58.86;99967.22;6029849;23;20023;-77
2022/08/15 01:13:25;;;;;;;6.32;6.03;;;;;;;21.65;58.34;100006.13;6013232;23;20007;-76
2022/08/15 01:16:11;;;;;;;6.75;6.45;;;;;;;18.04;57.79;99430.34;6021085;23;20043;-78
2022/08/15 01:18:41;;;;;;;5.90;5.60;;;;;;;21.27;58.32;99962.25;6019038;23;20062;-79
2022/08/15 01:21:17;;;;;;;5.95;5.65;;;;;;;21.70;57.96;100025.13;6061212;18;20122;-78
2022/08/15 01:23:49;;;;;;;5.90;5.60;;;;;;;21.73;57.60;100031.13;6029918;23;20039;-80
2022/08/15 01:26:23;;;;;;;6.25;5.95;;;;;;;21.75;57.35;100034.47;6074728;23;20070;-78
2022/08/15 01:29:08;;;;;;;5.65;5.35;;;;;;;18.54;56.69;99548.22;6039063;23;20681;-79
2022/08/15 01:31:36;;;;;;;6.95;6.65;;;;;;;21.54;56.86;99994.97;6060326;23;20011;-76
2022/08/15 01:34:13;;;;;;;6.82;6.53;;;;;;;19.42;57.12;99664.84;6043081;23;20395;-77
2022/08/15 01:36:44;;;;;;;5.60;5.30;;;;;;;21.85;57.32;100035.13;6062496;23;20035;-79
2022/08/15 01:39:30;;;;;;;6.32;6.03;;;;;;;21.88;57.39;100030.28;6039909;23;20085;-77
2022/08/15 01:42:13;;;;;;;5.70;5.40;;;;;;;20.61;57.66;99852.06;6060783;23;20015;-79
2022/08/15 01:44:51;;;;;;;5.10;4.90;;;;;;;21.70;58.11;100005.63;6044639;23;20026;-78
2022/08/15 01:47:33;;;;;;;;;;;;;;;21.78;58.54;100023.47;6064526;23;20014;-76
2022/08/15 01:50:08;;;;;;;5.60;5.30;;;;;;;20.99;59.40;99919.03;6044098;23;19914;-78
2022/08/15 01:52:50;;;;;;;5.35;5.15;;;;;;;20.74;59.61;99902.22;6065064;23;20055;-79
2022/08/15 01:56:12;;;;;;;6.60;6.30;;;;;;;21.64;59.77;100027.66;6033629;23;20027;-77
2022/08/15 01:59:01;;;;;;;5.38;5.18;;;;;;;21.47;59.76;100014.31;6053244;23;20010;-79
2022/08/15 02:01:57;;;;;;;5.55;5.25;;;;;;;21.77;59.53;100030.66;6032649;23;20125;-79
2022/08/15 02:04:32;;;;;;;6.05;5.75;;;;;;;21.80;58.91;100030.31;6016302;23;20187;-79
2022/08/15 02:07:28;;;;;;;5.40;5.20;;;;;;;21.84;59.61;100026.28;6026727;23;20030;-80
2022/08/15 02:09:58;;;;;;;5.45;5.15;;;;;;;21.74;59.55;100022.97;6047092;23;20030;-80
2022/08/15 02:12:44;;;;;;;5.22;5.03;;;;;;;21.76;59.45;100039.66;6034718;23;20026;-80
2022/08/15 02:15:31;;;;;;;7.53;7.15;;;;;;;19.38;59.72;99684.81;6065966;23;20018;-78
2022/08/15 02:17:57;;;;;;;5.60;5.30;;;;;;;21.76;59.88;100036.97;6050074;23;20033;-78
2022/08/15 02:20:25;;;;;;;5.65;5.35;;;;;;;20.18;59.84;99785.50;6049978;23;20195;-78
2022/08/15 02:22:54;;;;;;;5.70;5.40;;;;;;;21.74;59.62;100036.31;6041687;23;20030;-78
2022/08/15 02:25:21;;;;;;;6.60;6.28;;;;;;;21.80;60.26;100034.81;6064840;23;20023;-76
2022/08/15 02:27:49;;;;;;;5.53;5.22;;;;;;;21.77;59.96;100030.66;6048688;23;20065;-77
2022/08/15 02:30:19;;;;;;;6.70;6.38;;;;;;;21.76;59.85;100039.66;6066996;23;20010;-79
2022/08/15 02:32:47;;;;;;;5.28;5.07;;;;;;;21.60;59.86;100018.31;6034021;23;20058;-79
2022/08/15 02:35:16;;;;;;;6.03;5.55;;;;;;;21.57;60.45;100016.81;6050696;23;20034;-78
2022/08/15 02:37:44;;;;;;;5.78;5.47;;;;;;;19.15;60.51;99635.88;6039457;23;20026;-79
2022/08/15 02:40:24;;;;;;;5.45;5.15;;;;;;;21.62;60.94;100027.00;6054870;23;20061;-78
2022/08/15 02:43:13;;;;;;;6.45;6.05;;;;;;;21.59;60.54;100032.66;5995478;23;20019;-78
2022/08/15 02:45:47;;;;;;;7.43;7.07;;;;;;;21.43;61.21;100006.78;6069110;23;20030;-77
2022/08/15 02:48:34;;;;;;;5.35;5.15;;;;;;;21.24;61.26;99981.25;6032797;23;20003;-80
2022/08/15 02:51:07;;;;;;;5.30;5.10;;;;;;;20.81;61.68;99927.22;6075380;23;20052;-79
2022/08/15 02:53:49;;;;;;;5.80;5.50;;;;;;;21.47;62.25;100025.00;6035054;23;20010;-77
2022/08/15 02:56:20;;;;;;;6.50;6.20;;;;;;;21.43;62.27;100020.13;6064091;23;20436;-78
2022/08/15 02:58:47;;;;;;;5.55;5.25;;;;;;;20.12;62.12;99812.81;6027164;23;20480;-77
2022/08/15 03:01:19;;;;;;;6.55;6.25;;;;;;;20.53;62.33;99899.00;6055431;23;20482;-82
2022/08/15 03:03:52;;;;;;;5.57;5.28;;;;;;;21.29;63.20;100018.97;6038277;23;20578;-80
2022/08/15 03:06:32;;;;;;;5.78;5.47;;;;;;;21.22;63.75;100025.97;6063193;23;20010;-78
2022/08/15 03:09:06;;;;;;;5.50;5.20;;;;;;;21.17;64.38;100025.59;6028630;23;20034;-77
2022/08/15 03:11:37;;;;;;;5.25;5.05;;;;;;;21.12;64.35;100023.44;6065709;23;20030;-78
2022/08/15 03:14:22;;;;;;;6.22;5.93;;;;;;;18.02;63.90;99564.19;6058782;23;20060;-78
2022/08/15 03:17:00;;;;;;;5.70;5.40;;;;;;;21.08;64.66;100030.09;6062818;23;20082;-77
2022/08/15 03:19:27;;;;;;;6.80;6.50;;;;;;;19.64;64.69;99791.16;6015916;23;20021;-76
2022/08/15 03:21:54;;;;;;;5.65;5.35;;;;;;;19.51;64.83;99757.03;6064040;23;20010;-80
2022/08/15 03:24:22;;;;;;;6.57;6.28;;;;;;;21.17;64.95;100022.94;6015361;23;20081;-77
2022/08/15 03:26:50;;;;;;;5.82;5.55;;;;;;;21.19;65.02;100015.59;6048142;23;20082;-78
2022/08/15 03:29:20;;;;;;;6.25;5.95;;;;;;;20.59;64.69;99918.03;6035813;23;20014;-76
2022/08/15 03:31:49;;;;;;;5.50;5.20;;;;;;;21.29;64.41;100011.78;6060085;23;20030;-75
2022/08/15 03:34:18;;;;;;;6.60;6.30;;;;;;;19.93;64.31;99800.63;6033986;23;20025;-76
2022/08/15 03:36:54;;;;;;;5.60;5.30;;;;;;;20.57;63.88;99880.00;6056698;23;20038;-79
2022/08/15 03:39:23;;;;;;;7.40;7.00;;;;;;;21.40;63.81;100013.28;5999240;23;20074;-77
2022/08/15 03:41:52;;;;;;;5.38;5.18;;;;;;;20.29;63.57;99822.50;6048829;23;20081;-78
2022/08/15 03:44:23;;;;;;;5.50;5.20;;;;;;;21.45;63.81;100002.97;6033441;23;20014;-79
2022/08/15 03:46:54;;;;;;;5.22;5.03;;;;;;;21.38;63.42;99985.09;6076049;23;20014;-77
2022/08/15 03:49:22;;;;;;;6.40;6.10;;;;;;;20.34;63.41;99814.00;6032149;23;20038;-79
2022/08/15 03:52:10;;;;;;;6.18;5.88;;;;;;;21.52;63.30;99993.28;6074713;23;20034;-76
2022/08/15 03:55:00;;;;;;;5.60;5.30;;;;;;;21.53;62.96;99991.47;6035347;23;20019;-79
2022/08/15 03:57:27;;;;;;;7.03;6.68;;;;;;;20.69;63.27;99850.22;6033356;23;20645;-77
2022/08/15 04:00:18;;;;;;;6.38;6.07;;;;;;;20.33;62.93;99802.53;6028195;23;20516;-79
2022/08/15 04:02:45;;;;;;;5.85;5.55;;;;;;;21.31;63.30;99956.41;6057290;23;20632;-78
2022/08/15 04:05:15;;;;;;;6.97;6.60;;;;;;;20.91;63.77;99914.56;6027216;23;20409;-78
2022/08/15 04:07:48;;;;;;;5.32;5.10;;;;;;;20.75;64.37;99875.38;6066565;23;20010;-77
2022/08/15 04:10:26;;;;;;;6.50;6.20;;;;;;;20.51;63.94;99831.69;6026480;23;20070;-79
2022/08/15 04:13:10;;;;;;;5.38;5.10;;;;;;;21.49;64.13;99993.63;6048064;23;20034;-78
2022/08/15 04:15:41;;;;;;;5.60;5.30;;;;;;;20.99;63.80;99925.22;6032444;23;20018;-79
2022/08/15 04:18:09;;;;;;;6.53;6.22;;;;;;;21.49;63.85;99990.97;6070838;23;20081;-77
2022/08/15 04:20:58;;;;;;;5.40;5.20;;;;;;;21.50;63.91;99994.47;6040144;23;20026;-77
2022/08/15 04:23:27;;;;;;;5.55;5.25;;;;;;;21.50;63.97;99989.94;6061044;23;20378;-78
2022/08/15 04:25:58;;;;;;;5.40;5.20;;;;;;;20.87;63.97;99887.38;6040416;23;20662;-78
2022/08/15 04:28:33;;;;;;;5.50;5.20;;;;;;;20.89;63.77;99881.91;6032507;23;20092;-78
2022/08/15 04:31:21;;;;;;;6.82;6.53;;;;;;;20.78;63.10;99858.22;6017255;23;20658;-77
2022/08/15 04:33:48;;;;;;;5.40;5.15;;;;;;;21.60;64.12;99980.94;6059188;23;20511;-76
2022/08/15 04:36:36;;;;;;;5.60;5.30;;;;;;;21.63;63.32;99975.22;6020536;23;20019;-78
2022/08/15 04:39:04;;;;;;;5.45;5.22;;;;;;;21.23;63.58;99923.56;6035275;23;20037;-77
2022/08/15 04:41:32;;;;;;;5.53;5.22;;;;;;;20.77;64.22;99822.72;6032461;23;20382;-77
2022/08/15 04:44:04;;;;;;;5.72;5.28;;;;;;;21.56;63.68;99963.59;6071358;23;20034;-78
2022/08/15 04:46:31;;;;;;;5.75;5.45;;;;;;;21.48;63.80;99970.59;6031980;23;20061;-78
2022/08/15 04:48:58;;;;;;;5.60;5.30;;;;;;;21.03;63.58;99881.22;6059987;23;20005;-76
2022/08/15 04:51:26;;;;;;;5.13;4.93;;;;;;;21.66;63.07;99980.25;6019413;23;20484;-78
2022/08/15 04:54:02;;;;;;;5.30;5.10;;;;;;;21.51;63.34;99943.56;6056444;23;20022;-77
2022/08/15 04:56:31;;;;;;;5.65;5.40;;;;;;;21.29;63.03;99902.38;6032923;23;20023;-78
2022/08/15 04:59:18;;;;;;;6.28;5.97;;;;;;;21.18;62.35;99892.03;6051161;23;20057;-77
2022/08/15 05:02:05;;;;;;;5.22;5.03;;;;;;;21.54;62.79;99941.56;6034022;23;20027;-76
2022/08/15 05:04:52;;;;;;;5.55;5.35;;;;;;;21.85;62.88;100000.41;6052599;23;20093;-77
2022/08/15 05:07:19;;;;;;;6.20;5.90;;;;;;;21.26;62.33;99921.38;6030624;23;20576;-79
2022/08/15 05:09:52;;;;;;;5.65;5.35;;;;;;;21.30;62.69;99922.69;6051232;23;20326;-79
2022/08/15 05:12:29;;;;;;;5.70;5.43;;;;;;;21.45;63.09;99946.91;6014023;23;20100;-78
2022/08/15 05:15:15;;;;;;;6.63;6.32;;;;;;;21.64;62.60;99959.06;6059421;23;20115;-77
2022/08/15 05:17:45;;;;;;;5.35;5.15;;;;;;;21.06;62.85;99872.03;6026269;23;20027;-77
2022/08/15 05:20:23;;;;;;;6.90;6.53;;;;;;;20.52;62.94;99784.53;6049451;23;20007;-78
2022/08/15 05:22:57;;;;;;;5.20;5.00;;;;;;;21.54;62.34;99938.91;6038410;23;20010;-77
2022/08/15 05:25:28;;;;;;;5.20;5.00;;;;;;;21.08;63.69;99862.03;6051924;23;20058;-77
2022/08/15 05:27:55;;;;;;;5.28;5.07;;;;;;;22.00;62.70;100021.91;6043033;23;20025;-77
2022/08/15 05:30:22;;;;;;;6.20;5.90;;;;;;;21.98;63.54;100015.91;6059817;23;20588;-78
2022/08/15 05:33:15;;;;;;;5.80;5.50;;;;;;;21.98;63.36;100015.91;6020565;23;20073;-77
2022/08/15 05:35:45;;;;;;;5.40;5.10;;;;;;;22.00;63.70;100019.25;6046090;23;20097;-76
2022/08/15 05:38:21;;;;;;;6.40;6.10;;;;;;;21.38;63.17;99913.84;6014023;23;20070;-77
2022/08/15 05:41:06;;;;;;;5.70;5.40;;;;;;;22.04;63.33;100015.22;6057220;23;20026;-77
2022/08/15 05:43:46;;;;;;;5.65;5.40;;;;;;;21.08;63.90;99849.50;6036133;23;20013;-77
2022/08/15 05:46:26;;;;;;;6.68;6.28;;;;;;;22.16;63.75;100016.53;6044285;23;20019;-77
2022/08/15 05:49:00;;;;;;;;;;;;;;;22.22;62.84;100009.66;6026180;23;20085;-79
2022/08/15 05:51:51;;;;;;;5.72;5.43;;;;;;;21.83;62.61;99947.16;6057047;23;20352;-77
2022/08/15 05:54:35;;;;;;;6.40;6.10;;;;;;;22.27;62.04;99999.28;6012766;23;20837;-77
2022/08/15 05:57:09;;;;;;;5.22;5.03;;;;;;;21.91;62.30;99920.44;6059952;23;20742;-77
2022/08/15 05:59:43;;;;;;;5.50;5.20;;;;;;;22.55;62.42;100013.06;6022940;23;20369;-77
2022/08/15 06:02:25;;;;;;;6.38;6.07;;;;;;;22.61;63.18;100040.94;6063454;23;20030;-77
2022/08/15 06:05:13;;;;;;;6.30;6.00;;;;;;;22.69;62.51;100011.47;6019903;23;20055;-77
2022/08/15 06:07:44;;;;;;;5.25;5.05;;;;;;;22.78;61.73;100010.41;6059567;23;20035;-77
2022/08/15 06:10:27;;;;;;;6.30;6.00;;;;;;;22.28;61.72;99920.78;6018544;23;20013;-77
2022/08/15 06:13:27;;;;;;;5.40;5.20;;;;;;;22.55;61.22;99967.59;6052582;23;20010;-77
2022/08/15 06:16:00;;;;;;;5.57;5.28;;;;;;;22.70;60.67;99959.66;6008985;23;20059;-76
2022/08/15 06:18:46;;;;;;;;;;;;;;;23.19;61.69;100012.00;6059421;23;20486;-76
2022/08/15 06:21:19;;;;;;;6.45;6.15;;;;;;;23.36;60.12;100013.56;6023829;23;19937;-77
2022/08/15 06:24:10;;;;;;;5.78;5.47;;;;;;;23.49;60.52;100008.44;6054995;23;20022;-76
2022/08/15 06:27:14;;;;;;;5.80;5.50;;;;;;;23.78;59.18;100004.16;6030480;23;20026;-76
2022/08/15 06:30:03;;;;;;;5.25;5.05;;;;;;;24.00;58.84;99997.06;6054446;23;20042;-77
2022/08/15 06:32:52;;;;;;;5.82;5.53;;;;;;;24.18;58.10;100001.22;6022774;23;20240;-79
2022/08/15 06:35:29;;;;;;;6.57;6.28;;;;;;;24.15;57.99;99950.63;6048721;23;20479;-78
2022/08/15 06:38:08;;;;;;;6.00;5.70;;;;;;;23.89;57.67;99909.91;6027586;23;20019;-78
2022/08/15 06:41:20;;;;;;;5.80;5.50;;;;;;;24.66;56.43;99974.81;6053588;23;19999;-78
2022/08/15 06:43:50;;;;;;;5.85;5.55;;;;;;;24.72;56.51;99954.41;6029465;23;20051;-79
2022/08/15 06:46:27;;;;;;;6.63;6.30;;;;;;;24.96;54.98;99983.56;6056488;23;20037;-79
2022/08/15 06:49:19;;;;;;;6.60;6.30;;;;;;;24.49;55.67;99907.91;6020278;23;20023;-79
2022/08/15 06:51:50;;;;;;;5.95;5.65;;;;;;;25.06;55.73;99994.81;6091930;18;20040;-77
2022/08/15 06:54:28;;;;;;;5.75;5.47;;;;;;;24.86;56.65;100012.59;6051367;23;20430;-77
2022/08/15 06:57:27;;;;;;;7.50;7.10;;;;;;;24.93;56.12;100023.38;6099673;23;20021;-75
2022/08/15 07:00:18;;;;;;;6.18;5.88;;;;;;;24.87;56.89;100030.34;6057650;23;20042;-76
2022/08/15 07:03:19;;;;;;;6.80;6.50;;;;;;;24.76;58.28;100038.91;6083095;23;20223;-78
2022/08/15 07:05:56;;;;;;;6.20;5.90;;;;;;;24.69;58.18;100050.38;6045898;23;20435;-76
2022/08/15 07:08:54;;;;;;;6.10;5.70;;;;;;;24.57;58.15;100032.28;6076024;23;20019;-76
2022/08/15 07:11:32;;;;;;;6.38;6.07;;;;;;;24.40;59.06;100045.03;6043844;23;20575;-76
2022/08/15 07:14:17;;;;;;;6.70;6.40;;;;;;;23.58;59.74;99936.84;6077688;23;20157;-77
2022/08/15 07:17:00;;;;;;;5.60;5.30;;;;;;;24.33;59.58;100039.56;6066679;23;20559;-78
2022/08/15 07:19:27;;;;;;;10.68;5.53;;;;;;;24.31;60.33;100030.88;6076958;23;20006;-77
2022/08/15 07:22:03;;;;;;;6.97;6.68;;;;;;;23.85;60.30;99972.94;6043459;23;20029;-79
2022/08/15 07:24:32;;;;;;;5.78;5.47;;;;;;;24.31;60.01;100036.22;6074492;23;20022;-76
2022/08/15 07:27:09;;;;;;;6.90;6.60;;;;;;;24.50;59.54;100040.25;6052308;23;20774;-78
2022/08/15 07:29:36;;;;;;;5.57;5.28;;;;;;;24.65;60.39;100042.88;6072960;23;20014;-79
2022/08/15 07:32:27;;;;;;;7.68;7.28;;;;;;;24.69;59.84;100046.84;6053163;23;20034;-76
2022/08/15 07:35:05;;;;;;;6.75;6.45;;;;;;;24.51;60.32;100057.16;6073735;23;20081;-78
2022/08/15 07:37:40;;;;;;;6.03;5.72;;;;;;;24.54;60.08;100036.16;6051689;23;20038;-76
2022/08/15 07:40:18;;;;;;;7.22;6.82;;;;;;;24.46;61.42;100038.94;6070655;23;20109;-78
2022/08/15 07:42:55;;;;;;;5.85;5.55;;;;;;;24.40;59.96;100037.00;6024153;23;20046;-75
2022/08/15 07:45:31;;;;;;;5.70;5.40;;;;;;;23.89;61.32;99978.75;6075712;23;20085;-76
2022/08/15 07:48:04;;;;;;;6.93;6.63;;;;;;;24.16;60.42;99963.88;6039691;23;20030;-75
2022/08/15 07:50:45;;;;;;;5.50;5.30;;;;;;;24.27;61.38;100005.44;6071771;23;20018;-75
2022/08/15 07:53:21;;;;;;;6.43;6.13;;;;;;;24.47;61.27;100046.75;6041807;23;20615;-76
2022/08/15 07:56:00;;;;;;;5.85;5.53;;;;;;;24.48;61.77;100043.06;6084516;23;20049;-75
2022/08/15 07:58:51;;;;;;;5.65;5.43;;;;;;;24.49;61.14;100047.41;6062355;23;20020;-75
2022/08/15 08:01:19;;;;;;;5.40;5.20;;;;;;;24.50;62.30;100050.97;6049581;23;20435;-75
2022/08/15 08:04:09;;;;;;;7.18;6.78;;;;;;;24.34;61.71;100037.75;6047786;23;20006;-76
2022/08/15 08:06:59;;;;;;;5.72;5.45;;;;;;;24.63;62.24;100044.94;6082862;23;20432;-75
2022/08/15 08:09:42;;;;;;;6.10;5.80;;;;;;;24.69;61.75;100044.19;6049626;23;20026;-75
2022/08/15 08:12:34;;;;;;;6.65;6.35;;;;;;;24.62;61.26;100036.06;6099286;23;20018;-77
2022/08/15 08:15:30;;;;;;;5.60;5.30;;;;;;;24.86;61.62;100039.44;6054521;23;20030;-75
2022/08/15 08:18:26;;;;;;;7.07;6.78;;;;;;;24.77;62.12;100032.50;6073475;23;20566;-76
2022/08/15 08:21:02;;;;;;;5.47;5.25;;;;;;;24.75;62.05;100015.75;6045654;23;20053;-75
2022/08/15 08:23:44;;;;;;;6.05;5.75;;;;;;;24.51;62.04;99992.78;6092357;23;20017;-75
2022/08/15 08:26:26;;;;;;;7.20;6.80;;;;;;;24.91;61.71;100044.22;6043965;23;20198;-76
2022/08/15 08:29:08;;;;;;;6.60;6.25;;;;;;;24.82;61.45;100049.72;6069146;23;20042;-76
2022/08/15 08:31:41;;;;;;;5.60;5.30;;;;;;;24.74;61.33;100047.13;6050858;23;20014;-77
2022/08/15 08:34:53;;;;;;;5.97;5.68;;;;;;;23.77;62.00;99919.41;6067644;23;20017;-77
2022/08/15 08:37:37;;;;;;;5.90;5.60;;;;;;;24.37;63.81;100050.75;6053334;23;20034;-78
2022/08/15 08:43:15;;;;;;;5.88;5.57;;;;;;;23.69;62.93;99957.84;6049820;23;20104;-77
2022/08/15 08:45:55;;;;;;;5.75;5.45;;;;;;;24.26;64.45;100049.38;6079235;23;20022;-78
2022/08/15 08:48:42;;;;;;;5.80;5.50;;;;;;;23.80;64.80;99964.63;6063470;23;20889;-78
2022/08/15 08:51:53;;;;;;;9.50;9.00;;;;;;;24.27;65.22;100054.53;6039602;23;20431;-77
2022/08/15 08:54:45;;;;;;;5.80;5.50;;;;;;;24.30;64.49;100061.41;6046783;23;20045;-77
2022/08/15 08:57:33;;;;;;;5.90;5.60;;;;;;;24.44;64.86;100057.88;6078159;23;21690;-77
2022/08/15 09:00:12;;;;;;;6.43;6.07;;;;;;;23.16;64.69;99887.41;6040421;23;20015;-77
2022/08/15 09:03:02;;;;;;;5.80;5.50;;;;;;;24.27;65.16;100062.59;6068287;23;20010;-78
2022/08/15 09:05:35;;;;;;;6.00;5.70;;;;;;;24.29;64.91;100059.72;6038182;23;20400;-77
2022/08/15 09:08:22;;;;;;;6.07;5.78;;;;;;;24.05;66.33;100061.66;6100228;23;20025;-76
2022/08/15 09:11:01;;;;;;;6.05;5.75;;;;;;;23.05;65.90;99859.25;6037828;23;20542;-76
2022/08/15 09:13:34;;;;;;;7.15;6.80;;;;;;;23.60;65.19;99934.81;6077461;23;20017;-75
2022/08/15 09:16:16;;;;;;;7.07;6.68;;;;;;;24.29;66.30;100054.34;6052446;23;20559;-77
2022/08/15 09:19:23;;;;;;;5.80;5.50;;;;;;;23.79;67.70;100031.78;6085681;23;20089;-78
2022/08/15 09:21:54;;;;;;;6.13;5.82;;;;;;;23.85;67.19;100029.22;6041700;23;20058;-77
2022/08/15 09:24:24;;;;;;;6.97;6.57;;;;;;;24.21;67.72;100059.81;6076875;23;20700;-79
2022/08/15 09:27:27;;;;;;;7.07;6.72;;;;;;;23.56;67.80;100010.38;6041898;23;20022;-78
2022/08/15 09:30:16;;;;;;;5.88;5.57;;;;;;;24.13;69.00;100060.75;6068480;23;20044;-74
2022/08/15 09:33:50;;;;;;;5.57;5.28;;;;;;;24.16;68.54;100044.28;6056309;23;20030;-77
2022/08/15 09:36:34;;;;;;;5.70;5.40;;;;;;;24.42;67.46;100057.22;6019990;23;20257;-77
2022/08/15 09:39:29;;;;;;;6.63;6.32;;;;;;;24.51;66.40;100022.28;6043995;23;20090;-78
2022/08/15 09:42:25;;;;;;;7.65;7.25;;;;;;;24.99;65.28;100060.22;6082123;23;20026;-79
2022/08/15 09:45:18;;;;;;;6.63;6.32;;;;;;;24.90;65.94;100056.81;6026482;23;20086;-81
2022/08/15 09:48:42;;;;;;;6.68;6.38;;;;;;;25.07;64.44;100060.09;6074234;23;20080;-78
2022/08/15 09:51:28;;;;;;;7.18;6.80;;;;;;;25.23;65.17;100056.34;6066797;23;20030;-77
2022/08/15 09:54:18;;;;;;;6.40;6.10;;;;;;;24.09;63.61;99882.50;6080120;23;20361;-77
2022/08/15 09:57:19;;;;;;;6.30;6.00;;;;;;;25.47;63.70;100058.66;6056085;23;20052;-77
2022/08/15 09:59:56;;;;;;;6.18;5.88;;;;;;;25.22;62.68;100007.19;6080953;23;20049;-78
2022/08/15 10:02:32;;;;;;;6.88;6.47;;;;;;;25.11;62.31;99996.94;6044733;23;20024;-76
2022/08/15 10:05:03;;;;;;;6.97;6.57;;;;;;;25.63;63.73;100070.16;6080273;23;20298;-77
2022/08/15 10:08:01;;;;;;;5.78;5.47;;;;;;;25.68;63.00;100054.28;6053610;23;20230;-80
2022/08/15 10:10:32;;;;;;;6.13;5.72;;;;;;;25.74;63.76;100063.41;6079184;23;20025;-79
2022/08/15 10:13:21;;;;;;;7.53;6.93;;;;;;;25.94;62.45;100064.44;6052445;23;20475;-78
2022/08/15 10:15:47;;;;;;;5.53;5.30;;;;;;;25.92;61.73;100028.00;6076653;23;20046;-79
2022/08/15 10:18:23;;;;;;;6.63;6.22;;;;;;;25.93;62.22;100056.56;6035386;23;20495;-80
2022/08/15 10:20:57;;;;;;;6.07;5.70;;;;;;;25.98;62.97;100059.47;6084964;23;20030;-79
2022/08/15 10:23:31;;;;;;;5.90;5.60;;;;;;;25.34;63.04;99956.47;6053032;23;20542;-76
2022/08/15 10:26:14;;;;;;;6.88;6.47;;;;;;;25.36;63.09;99959.78;6085091;23;20034;-79
2022/08/15 10:29:12;;;;;;;7.65;7.25;;;;;;;26.09;63.00;100067.00;6035132;23;20030;-79
2022/08/15 10:31:53;;;;;;;5.85;5.55;;;;;;;25.90;63.44;100068.56;6076776;23;20022;-76
2022/08/15 10:34:58;;;;;;;5.97;5.65;;;;;;;25.87;63.90;100064.34;6035773;23;20026;-78
2022/08/15 10:37:40;;;;;;;6.00;5.70;;;;;;;25.83;64.14;100067.63;6084770;23;20591;-76
2022/08/15 10:40:37;;;;;;;6.30;6.00;;;;;;;25.76;63.57;100072.97;6052320;23;20038;-78
2022/08/15 10:43:28;;;;;;;8.93;8.45;;;;;;;25.71;64.19;100077.25;6103054;23;20048;-78
2022/08/15 10:46:22;;;;;;;6.03;5.72;;;;;;;25.62;63.83;100049.69;6035101;23;20039;-79
2022/08/15 10:49:03;;;;;;;5.78;5.47;;;;;;;26.13;63.31;100076.34;6076414;23;20410;-79
2022/08/15 10:52:10;;;;;;;6.50;6.00;;;;;;;26.32;62.83;100072.13;6074044;23;21491;-77
2022/08/15 10:55:14;;;;;;;5.80;5.50;;;;;;;24.92;65.80;99986.81;6079407;23;20018;-77
2022/08/15 10:57:46;;;;;;;6.00;5.70;;;;;;;25.57;65.73;100087.06;6043791;23;20038;-78
2022/08/15 11:00:42;;;;;;;6.00;5.70;;;;;;;25.61;65.13;100078.41;6082934;23;20026;-77
2022/08/15 11:03:27;;;;;;;7.15;6.80;;;;;;;25.53;65.71;100045.47;6063508;23;20045;-76
2022/08/15 11:06:19;;;;;;;6.70;6.32;;;;;;;25.71;66.04;100083.44;6075846;23;20033;-77
2022/08/15 11:09:18;;;;;;;6.07;5.78;;;;;;;25.64;65.69;100064.59;6055002;23;20475;-74
2022/08/15 11:12:05;;;;;;;6.55;6.18;;;;;;;25.86;65.17;100086.88;6085242;23;20447;-77
2022/08/15 11:14:43;;;;;;;5.90;5.60;;;;;;;25.51;64.86;100055.59;6053123;23;20105;-76
2022/08/15 11:17:18;;;;;;;7.30;6.95;;;;;;;24.88;66.75;100057.00;6068615;23;20050;-77
2022/08/15 11:19:52;;;;;;;6.10;5.80;;;;;;;25.00;67.05;100080.69;6044429;23;20092;-77
2022/08/15 11:22:48;;;;;;;6.18;5.88;;;;;;;24.57;67.43;100049.19;6080725;23;20038;-79
2022/08/15 11:25:29;;;;;;;5.90;5.60;;;;;;;24.17;68.87;100026.34;6058937;23;20030;-77
2022/08/15 11:28:21;;;;;;;7.28;6.78;;;;;;;24.46;72.25;100092.56;6091348;23;20036;-78
2022/08/15 11:31:19;;;;;;;7.22;6.88;;;;;;;24.17;72.10;100099.56;6079414;23;20030;-77
2022/08/15 11:33:48;;;;;;;5.68;5.45;;;;;;;23.83;74.01;100035.75;6076830;23;20023;-78
2022/08/15 11:36:23;;;;;;;8.27;7.88;;;;;;;23.78;74.92;100030.94;6065117;23;20042;-75
2022/08/15 11:39:00;;;;;;;6.45;6.13;;;;;;;24.33;72.55;100105.78;6089434;23;20037;-79
2022/08/15 11:41:48;;;;;;;6.22;5.88;;;;;;;24.02;73.87;100063.88;6057243;23;20037;-76
2022/08/15 11:44:18;;;;;;;6.50;6.20;;;;;;;23.98;75.45;100076.81;6070480;23;20128;-76
2022/08/15 11:46:49;;;;;;;6.38;6.07;;;;;;;23.99;75.10;100061.56;6052548;23;20019;-77
2022/08/15 11:49:48;;;;;;;6.00;5.70;;;;;;;24.37;75.09;100115.94;6072454;23;20013;-76
2022/08/15 11:52:25;;;;;;;6.63;6.32;;;;;;;24.53;73.97;100112.28;5929480;23;20023;-78
2022/08/15 11:55:27;;;;;;;6.55;6.18;;;;;;;24.54;73.44;100097.88;6080618;23;20034;-77
2022/08/15 11:58:21;;;;;;;6.03;5.72;;;;;;;24.39;73.26;100113.09;6020390;23;20034;-77
2022/08/15 12:00:57;;;;;;;5.78;5.47;;;;;;;24.39;71.19;100067.50;6070502;23;20074;-76
2022/08/15 12:03:33;;;;;;;5.68;5.38;;;;;;;24.91;70.63;100106.78;6042198;23;20037;-77
2022/08/15 12:06:30;;;;;;;6.10;5.80;;;;;;;25.09;68.82;100106.38;6072209;23;20015;-78
2022/08/15 12:09:24;;;;;;;6.20;5.90;;;;;;;24.99;67.40;100076.31;6044152;23;20038;-77
2022/08/15 12:12:26;;;;;;;8.02;7.63;;;;;;;25.41;65.96;100097.03;6064866;23;20025;-78
2022/08/15 12:15:06;;;;;;;7.00;6.65;;;;;;;25.35;67.20;100062.88;5988785;23;20122;-77
2022/08/15 12:17:35;;;;;;;6.05;5.75;;;;;;;25.24;67.86;100109.06;6105301;23;20103;-78
2022/08/15 12:20:59;;;;;;;5.93;5.63;;;;;;;25.68;65.72;100099.97;6022718;23;20715;-77
2022/08/15 12:23:30;;;;;;;5.78;5.47;;;;;;;25.96;64.82;100099.19;6072097;23;20478;-76
2022/08/15 12:26:04;;;;;;;7.18;6.78;;;;;;;26.13;62.62;100100.56;6047818;23;20046;-76
2022/08/15 12:28:51;;;;;;;6.35;5.95;;;;;;;25.26;61.95;99935.97;6085156;23;20020;-76
2022/08/15 12:31:36;;;;;;;6.10;5.80;;;;;;;26.49;59.95;100098.69;6072732;23;20089;-77
2022/08/15 12:34:24;;;;;;;8.48;8.02;;;;;;;26.44;58.66;100096.59;6089027;23;20022;-78